Time;durP1;ratioP1;P1;durP2;ratioP2;P2;SDS_P1;SDS_P2;PMS_P1;PMS_P2;Temp;Humidity;BMP_temperature;BMP_pressure;BME280_temperature;BME280_humidity;BME280_pressure;Samples;Min_cycle;Max_cycle;Signal;HPM_P1;HPM_P2
2022/06/09 05:53:33;;;;;;;15.05;6.88;;;;;;;;;;5038493;28;20200;-70
2022/06/09 05:55:59;;;;;;;9.27;6.25;;;;;;;;;;5013344;28;20468;-69
2022/06/09 05:58:25;;;;;;;13.20;5.72;;;;;;;;;;5031294;28;20575;-71
2022/06/09 06:00:51;;;;;;;12.68;6.03;;;;;;;;;;5029579;28;20045;-69
2022/06/09 06:03:17;;;;;;;16.65;5.75;;;;;;;;;;5030687;28;20106;-70
2022/06/09 06:08:28;;;;;;;7.80;5.22;;;;;;;;;;5030977;28;20041;-69
2022/06/09 06:10:54;;;;;;;7.15;4.53;;;;;;;;;;5030636;28;20128;-69
2022/06/09 06:13:20;;;;;;;7.57;4.22;;;;;;;;;;5030836;28;20124;-68
2022/06/09 06:15:46;;;;;;;8.32;4.30;;;;;;;;;;5012933;28;20037;-69
2022/06/09 06:18:11;;;;;;;11.10;5.15;;;;;;;;;;5030736;28;20056;-68
2022/06/09 06:20:37;;;;;;;11.80;4.78;;;;;;;;;;5030770;28;20417;-69
2022/06/09 06:23:03;;;;;;;13.02;4.65;;;;;;;;;;5030552;28;20548;-69
2022/06/09 06:25:29;;;;;;;17.52;5.03;;;;;;;;;;5030762;28;20042;-69
2022/06/09 06:27:55;;;;;;;7.78;4.47;;;;;;;;;;5030429;28;20069;-70
2022/06/09 06:30:21;;;;;;;11.80;4.53;;;;;;;;;;5012715;28;20045;-69
2022/06/09 06:32:47;;;;;;;12.27;3.90;;;;;;;;;;5030285;28;20038;-69
2022/06/09 06:35:13;;;;;;;6.25;4.00;;;;;;;;;;5030185;28;20516;-71
2022/06/09 06:37:39;;;;;;;3.90;3.60;;;;;;;;;;5030436;28;20048;-70
2022/06/09 06:40:05;;;;;;;5.18;3.35;;;;;;;;;;5029953;28;20041;-69
2022/06/09 06:42:31;;;;;;;6.97;3.30;;;;;;;;;;5030316;28;20541;-69
2022/06/09 06:44:57;;;;;;;7.85;3.50;;;;;;;;;;5012488;28;20045;-70
2022/06/09 06:47:24;;;;;;;5.38;3.10;;;;;;;;;;5030127;28;20045;-70
2022/06/09 06:49:50;;;;;;;4.38;3.10;;;;;;;;;;5029752;28;20103;-71
2022/06/09 06:52:16;;;;;;;4.18;3.45;;;;;;;;;;5030059;28;20053;-70
2022/06/09 06:54:42;;;;;;;4.03;3.58;;;;;;;;;;5029882;28;20057;-70
2022/06/09 06:57:09;;;;;;;8.73;3.08;;;;;;;;;;5029735;28;20052;-69
2022/06/09 06:59:35;;;;;;;5.88;3.42;;;;;;;;;;5029951;28;20037;-69
2022/06/09 07:02:01;;;;;;;6.07;3.60;;;;;;;;;;5029643;28;20107;-68
2022/06/09 07:04:27;;;;;;;8.85;3.20;;;;;;;;;;5028632;28;20041;-69
2022/06/09 07:06:52;;;;;;;11.85;3.05;;;;;;;;;;5029666;28;20083;-70
2022/06/09 07:09:18;;;;;;;5.65;3.00;;;;;;;;;;5029784;28;20098;-70
2022/06/09 07:11:45;;;;;;;3.08;2.85;;;;;;;;;;5012214;28;20057;-70
2022/06/09 07:14:11;;;;;;;4.80;2.83;;;;;;;;;;5011820;28;20037;-71
2022/06/09 07:16:37;;;;;;;5.43;3.03;;;;;;;;;;5012178;28;20056;-70
2022/06/09 07:19:03;;;;;;;2.72;2.50;;;;;;;;;;5029470;28;20104;-69
2022/06/09 07:21:29;;;;;;;9.35;2.97;;;;;;;;;;5012000;28;20064;-69
2022/06/09 07:23:55;;;;;;;9.18;3.22;;;;;;;;;;5029450;28;20042;-70
2022/06/09 07:26:22;;;;;;;5.65;2.70;;;;;;;;;;5029598;28;20172;-69
2022/06/09 07:28:48;;;;;;;9.25;3.00;;;;;;;;;;5029485;28;20065;-69
2022/06/09 07:31:14;;;;;;;8.77;3.33;;;;;;;;;;5029226;28;20557;-69
2022/06/09 07:33:40;;;;;;;6.30;3.40;;;;;;;;;;5029772;28;20494;-69
2022/06/09 07:36:06;;;;;;;12.23;3.75;;;;;;;;;;5029065;28;20053;-68
2022/06/09 07:38:33;;;;;;;6.47;3.60;;;;;;;;;;5029537;28;20048;-70
2022/06/09 07:40:59;;;;;;;5.30;3.40;;;;;;;;;;5029065;28;20041;-69
2022/06/09 07:43:25;;;;;;;8.43;3.22;;;;;;;;;;5029297;28;20046;-68
2022/06/09 07:45:51;;;;;;;12.60;3.42;;;;;;;;;;5029186;28;20041;-69
2022/06/09 07:48:19;;;;;;;2.92;2.58;;;;;;;;;;5029425;28;20045;-70
2022/06/09 07:50:45;;;;;;;6.18;3.63;;;;;;;;;;4995534;28;20466;-71
2022/06/09 07:53:11;;;;;;;5.30;3.10;;;;;;;;;;5011312;28;20468;-70
2022/06/09 07:55:37;;;;;;;7.65;3.15;;;;;;;;;;5029286;28;20052;-70
2022/06/09 07:58:04;;;;;;;5.65;3.10;;;;;;;;;;5029237;28;20498;-70
2022/06/09 08:00:30;;;;;;;6.25;3.67;;;;;;;;;;5028857;28;20076;-69
2022/06/09 08:02:56;;;;;;;7.78;3.80;;;;;;;;;;5029112;28;20046;-70
2022/06/09 08:05:23;;;;;;;7.05;3.70;;;;;;;;;;5011459;28;20520;-71
2022/06/09 08:07:49;;;;;;;8.27;3.47;;;;;;;;;;5029080;28;20476;-71
2022/06/09 08:10:17;;;;;;;9.52;4.22;;;;;;;;;;5029063;28;20037;-70
2022/06/09 08:12:44;;;;;;;10.18;4.13;;;;;;;;;;5029143;28;20065;-70
2022/06/09 08:15:10;;;;;;;7.07;3.88;;;;;;;;;;5011215;28;20030;-69
2022/06/09 08:17:38;;;;;;;6.13;3.60;;;;;;;;;;5015633;28;20041;-70
2022/06/09 08:20:05;;;;;;;10.90;4.50;;;;;;;;;;5032742;28;20044;-68
2022/06/09 08:22:31;;;;;;;5.60;3.75;;;;;;;;;;5033050;28;20049;-69
2022/06/09 08:24:56;;;;;;;7.70;3.85;;;;;;;;;;5032578;28;20503;-67
2022/06/09 08:27:23;;;;;;;5.38;3.72;;;;;;;;;;5015283;28;20116;-69
2022/06/09 08:29:49;;;;;;;4.13;3.45;;;;;;;;;;5032695;28;20045;-69
2022/06/09 08:32:14;;;;;;;10.13;5.15;;;;;;;;;;5032473;28;20374;-68
2022/06/09 08:34:40;;;;;;;17.42;4.70;;;;;;;;;;5032834;28;20064;-69
2022/06/09 08:37:07;;;;;;;6.28;4.30;;;;;;;;;;5014844;28;20045;-71
2022/06/09 08:39:33;;;;;;;7.78;4.30;;;;;;;;;;5032656;28;20464;-71
2022/06/09 08:42:08;;;;;;;10.13;4.30;;;;;;;;;;5032417;28;20060;-69
2022/06/09 08:44:40;;;;;;;10.75;4.88;;;;;;;;;;5032671;28;20037;-69
2022/06/09 08:47:06;;;;;;;10.52;4.40;;;;;;;;;;5032332;28;20129;-71
2022/06/09 08:49:40;;;;;;;12.32;5.43;;;;;;;;;;5014732;28;20660;-70
2022/06/09 08:52:32;;;;;;;9.60;5.07;;;;;;;;;;5032124;28;20414;-71
2022/06/09 08:54:58;;;;;;;23.90;6.43;;;;;;;;;;5001232;28;20061;-69
2022/06/09 08:57:27;;;;;;;10.70;4.72;;;;;;;;;;5032153;28;20049;-71
2022/06/09 08:59:56;;;;;;;8.00;4.72;;;;;;;;;;5014229;28;20052;-70
2022/06/09 09:02:27;;;;;;;10.82;4.00;;;;;;;;;;5032190;28;20095;-69
2022/06/09 09:05:14;;;;;;;7.63;4.22;;;;;;;;;;5014205;28;20096;-70
2022/06/09 09:07:42;;;;;;;7.90;4.07;;;;;;;;;;5031952;28;20045;-68
2022/06/09 09:10:11;;;;;;;9.75;4.25;;;;;;;;;;5031571;28;20070;-72
2022/06/09 09:12:37;;;;;;;;;;;;;;;;;;5032501;28;20172;-71
2022/06/09 09:15:12;;;;;;;6.18;3.83;;;;;;;;;;5031624;28;20004;-70
2022/06/09 09:17:42;;;;;;;10.23;4.90;;;;;;;;;;5032177;28;20037;-70
2022/06/09 09:20:27;;;;;;;7.68;4.57;;;;;;;;;;5014470;28;20037;-70
2022/06/09 09:23:11;;;;;;;12.05;5.00;;;;;;;;;;4998255;28;20037;-70
2022/06/09 09:25:43;;;;;;;9.07;5.03;;;;;;;;;;5031913;28;20582;-69
2022/06/09 09:28:17;;;;;;;11.43;4.55;;;;;;;;;;5014202;28;20517;-69
2022/06/09 09:31:02;;;;;;;7.90;3.50;;;;;;;;;;5015140;28;20107;-70
2022/06/09 09:33:28;;;;;;;6.28;4.20;;;;;;;;;;5014465;28;20045;-69
2022/06/09 09:35:58;;;;;;;11.27;4.30;;;;;;;;;;5014706;28;20506;-71
2022/06/09 09:38:25;;;;;;;7.13;4.10;;;;;;;;;;5032788;28;20049;-69
2022/06/09 09:40:56;;;;;;;11.80;4.32;;;;;;;;;;5032279;28;20104;-71
2022/06/09 09:43:24;;;;;;;7.80;4.30;;;;;;;;;;5014943;28;20092;-69
2022/06/09 09:45:54;;;;;;;9.68;5.05;;;;;;;;;;5014309;28;20045;-68
2022/06/09 09:48:22;;;;;;;10.30;4.90;;;;;;;;;;5032093;28;20292;-69
2022/06/09 09:50:51;;;;;;;7.32;4.60;;;;;;;;;;5032124;28;20099;-69
2022/06/09 09:53:44;;;;;;;12.68;4.75;;;;;;;;;;5031209;28;20198;-69
2022/06/09 09:56:14;;;;;;;11.60;4.38;;;;;;;;;;5027476;28;20049;-70
2022/06/09 09:58:40;;;;;;;;;;;;;;;;;;5031987;28;20040;-69
2022/06/09 10:01:18;;;;;;;6.43;4.10;;;;;;;;;;5031039;28;19913;-70
2022/06/09 10:09:17;;;;;;;8.02;4.25;;;;;;;;;;5015673;28;20417;-70
2022/06/09 10:11:54;;;;;;;9.98;3.97;;;;;;;;;;5013166;28;20509;-69
2022/06/09 10:14:20;;;;;;;9.10;4.25;;;;;;;;;;5030594;28;20040;-70
2022/06/09 10:16:49;;;;;;;14.68;4.65;;;;;;;;;;5012930;28;20505;-71
2022/06/09 10:19:15;;;;;;;9.57;3.80;;;;;;;;;;5013011;28;20037;-71
2022/06/09 10:21:48;;;;;;;6.90;3.60;;;;;;;;;;5013122;28;20049;-69
2022/06/09 10:24:14;;;;;;;6.13;3.60;;;;;;;;;;5013002;28;20577;-69
2022/06/09 10:26:40;;;;;;;7.38;3.60;;;;;;;;;;5030612;28;20125;-70
2022/06/09 10:29:06;;;;;;;11.80;4.20;;;;;;;;;;5012813;28;20128;-69
2022/06/09 10:31:40;;;;;;;9.60;4.22;;;;;;;;;;5030301;28;20061;-70
2022/06/09 10:34:25;;;;;;;8.50;4.15;;;;;;;;;;5030339;28;20582;-70
2022/06/09 10:36:56;;;;;;;4.65;3.95;;;;;;;;;;5030260;28;20037;-68
2022/06/09 10:39:39;;;;;;;11.32;4.60;;;;;;;;;;5012396;28;20046;-69
2022/06/09 10:42:23;;;;;;;10.30;4.63;;;;;;;;;;4996185;28;20068;-70
2022/06/09 10:44:51;;;;;;;8.65;4.70;;;;;;;;;;5012673;28;20473;-68
2022/06/09 10:56:08;;;;;;;13.40;4.32;;;;;;;;;;5012041;28;20199;-71
2022/06/09 10:58:33;;;;;;;;;;;;;;;;;;5030499;28;20033;-70
2022/06/09 11:00:59;;;;;;;10.75;3.83;;;;;;;;;;5012090;28;20392;-71
2022/06/09 11:03:32;;;;;;;9.50;4.00;;;;;;;;;;5029808;28;20049;-70
2022/06/09 11:06:18;;;;;;;12.50;3.72;;;;;;;;;;5029715;28;20461;-70
2022/06/09 11:08:44;;;;;;;5.82;3.75;;;;;;;;;;5012529;28;20053;-68
2022/06/09 11:11:14;;;;;;;7.00;4.03;;;;;;;;;;5029474;28;20107;-70
2022/06/09 11:13:55;;;;;;;5.13;3.63;;;;;;;;;;5012336;28;20099;-70
2022/06/09 11:16:40;;;;;;;9.35;3.50;;;;;;;;;;5029343;28;20041;-68
2022/06/09 11:19:12;;;;;;;11.00;3.70;;;;;;;;;;5029604;28;20072;-70
2022/06/09 11:21:37;;;;;;;17.30;3.35;;;;;;;;;;5011864;28;20041;-70
2022/06/09 11:24:18;;;;;;;4.70;3.22;;;;;;;;;;5029584;28;20038;-70
2022/06/09 11:26:56;;;;;;;7.70;3.40;;;;;;;;;;5011977;28;20053;-70
2022/06/09 11:29:41;;;;;;;20.83;3.70;;;;;;;;;;5011828;28;20039;-68
2022/06/09 11:32:18;;;;;;;7.15;3.83;;;;;;;;;;5029124;28;20639;-68
2022/06/09 11:35:03;;;;;;;14.82;3.53;;;;;;;;;;5029571;28;20088;-70
2022/06/09 11:37:39;;;;;;;3.97;2.95;;;;;;;;;;5029157;28;20497;-70
2022/06/09 11:40:13;;;;;;;8.05;3.13;;;;;;;;;;5029052;28;20037;-71
2022/06/09 11:42:42;;;;;;;10.98;3.03;;;;;;;;;;5011827;28;20037;-69
2022/06/09 11:45:18;;;;;;;6.80;3.80;;;;;;;;;;5029281;28;20040;-71
2022/06/09 11:47:44;;;;;;;8.00;3.17;;;;;;;;;;5011833;28;20816;-70
2022/06/09 11:50:11;;;;;;;7.78;3.20;;;;;;;;;;5029246;28;20072;-69
2022/06/09 11:52:37;;;;;;;12.02;3.33;;;;;;;;;;5015959;28;20061;-69
2022/06/09 11:55:04;;;;;;;9.75;3.33;;;;;;;;;;5033229;28;20061;-68
2022/06/09 11:57:33;;;;;;;4.13;3.20;;;;;;;;;;5033612;28;20407;-69
2022/06/09 12:00:25;;;;;;;8.80;2.90;;;;;;;;;;5033584;28;20041;-69
2022/06/09 12:02:51;;;;;;;4.00;2.80;;;;;;;;;;5033086;28;20121;-68
2022/06/09 12:05:22;;;;;;;9.07;3.28;;;;;;;;;;5032885;28;20475;-70
2022/06/09 12:07:48;;;;;;;3.83;3.08;;;;;;;;;;4999494;28;20050;-69
2022/06/09 12:10:20;;;;;;;5.68;3.08;;;;;;;;;;5032922;28;20045;-69
2022/06/09 12:13:02;;;;;;;4.70;2.72;;;;;;;;;;5033255;28;20144;-69
2022/06/09 12:15:29;;;;;;;8.57;3.00;;;;;;;;;;5033117;28;20038;-69
2022/06/09 12:18:23;;;;;;;8.90;3.03;;;;;;;;;;5033209;28;20041;-68
2022/06/09 12:20:50;;;;;;;5.63;2.97;;;;;;;;;;5015443;28;20418;-68
2022/06/09 12:23:34;;;;;;;5.00;3.28;;;;;;;;;;5032769;28;20041;-69
2022/06/09 12:26:09;;;;;;;7.53;3.13;;;;;;;;;;5032575;28;20818;-70
2022/06/09 12:28:44;;;;;;;3.60;3.10;;;;;;;;;;5032614;28;20045;-70
2022/06/09 12:31:14;;;;;;;3.30;3.00;;;;;;;;;;5032433;28;20079;-70
2022/06/09 12:33:44;;;;;;;9.27;3.38;;;;;;;;;;5014958;28;20041;-69
2022/06/09 12:36:12;;;;;;;6.93;3.08;;;;;;;;;;5014780;28;20046;-69
2022/06/09 12:38:51;;;;;;;5.20;2.80;;;;;;;;;;5015338;28;20049;-69
2022/06/09 12:41:30;;;;;;;3.63;2.90;;;;;;;;;;5014737;28;20052;-70
2022/06/09 12:44:02;;;;;;;7.63;2.97;;;;;;;;;;5032671;28;20052;-70
2022/06/09 12:46:29;;;;;;;6.07;3.40;;;;;;;;;;5032259;28;20379;-71
2022/06/09 12:48:55;;;;;;;4.75;3.13;;;;;;;;;;5032645;28;20132;-68
2022/06/09 12:51:26;;;;;;;3.50;3.20;;;;;;;;;;5032052;28;20520;-69
2022/06/09 12:53:56;;;;;;;4.35;2.80;;;;;;;;;;5032460;28;20053;-70
2022/06/09 12:56:31;;;;;;;3.22;2.90;;;;;;;;;;4982103;28;20288;-69
2022/06/09 12:58:57;;;;;;;3.90;2.72;;;;;;;;;;5032490;28;20037;-71
2022/06/09 13:01:26;;;;;;;3.35;2.65;;;;;;;;;;5031805;28;20521;-71
2022/06/09 13:03:52;;;;;;;;;;;;;;;;;;5031679;28;20136;-72
2022/06/09 13:06:20;;;;;;;5.25;2.50;;;;;;;;;;5031966;28;20076;-71
2022/06/09 13:08:47;;;;;;;4.30;2.75;;;;;;;;;;5032026;28;20052;-70
2022/06/09 13:11:18;;;;;;;3.42;2.67;;;;;;;;;;5031681;28;20045;-70
2022/06/09 13:13:44;;;;;;;3.17;2.58;;;;;;;;;;5014499;28;20548;-71
2022/06/09 13:16:14;;;;;;;3.35;3.10;;;;;;;;;;5003742;28;20030;-69
2022/06/09 13:18:41;;;;;;;3.55;2.90;;;;;;;;;;4994752;28;20049;-68
2022/06/09 13:21:13;;;;;;;5.85;2.67;;;;;;;;;;4978057;28;20038;-70
2022/06/09 13:23:39;;;;;;;4.43;2.83;;;;;;;;;;5012066;28;20046;-70
2022/06/09 13:26:05;;;;;;;2.88;2.67;;;;;;;;;;4994443;28;20056;-70
2022/06/09 13:28:39;;;;;;;6.15;2.95;;;;;;;;;;5011568;28;20414;-70
2022/06/09 13:31:24;;;;;;;11.18;4.30;;;;;;;;;;5007194;28;20042;-70
2022/06/09 13:33:55;;;;;;;4.68;2.88;;;;;;;;;;5008610;28;20092;-68
2022/06/09 13:36:37;;;;;;;3.50;3.20;;;;;;;;;;5011152;28;20049;-69
2022/06/09 13:39:31;;;;;;;5.95;2.80;;;;;;;;;;5011636;28;20096;-69
2022/06/09 13:42:10;;;;;;;4.13;3.72;;;;;;;;;;4992999;28;20060;-69
2022/06/09 13:44:44;;;;;;;5.50;3.27;;;;;;;;;;4994161;28;20458;-68
2022/06/09 13:47:14;;;;;;;6.13;3.13;;;;;;;;;;4994195;28;20046;-70
2022/06/09 13:50:03;;;;;;;3.53;3.03;;;;;;;;;;4993675;28;20050;-69
2022/06/09 13:52:33;;;;;;;4.35;3.00;;;;;;;;;;5001410;28;20080;-68
2022/06/09 13:54:59;;;;;;;3.78;2.60;;;;;;;;;;5024008;28;20048;-70
2022/06/09 13:57:27;;;;;;;3.78;2.90;;;;;;;;;;5027573;28;20106;-70
2022/06/09 13:59:53;;;;;;;11.10;2.92;;;;;;;;;;5029403;28;20044;-70
2022/06/09 14:02:19;;;;;;;7.15;2.67;;;;;;;;;;5027391;28;20477;-69
2022/06/09 14:04:45;;;;;;;6.60;3.17;;;;;;;;;;5029153;28;20620;-70
2022/06/09 14:07:19;;;;;;;7.53;2.85;;;;;;;;;;5013429;28;20056;-69
2022/06/09 14:09:45;;;;;;;5.45;2.75;;;;;;;;;;5010061;28;20037;-68
2022/06/09 14:12:11;;;;;;;5.68;3.10;;;;;;;;;;5010703;28;20045;-68
2022/06/09 14:14:37;;;;;;;7.38;3.00;;;;;;;;;;5010788;28;20033;-69
2022/06/09 14:17:03;;;;;;;4.80;3.25;;;;;;;;;;5026390;28;20077;-70
2022/06/09 14:19:29;;;;;;;5.78;3.10;;;;;;;;;;5009732;28;20509;-70
2022/06/09 14:21:55;;;;;;;5.30;3.17;;;;;;;;;;5009541;28;20046;-69
2022/06/09 14:24:21;;;;;;;4.20;3.10;;;;;;;;;;5010718;28;20041;-69
2022/06/09 14:26:48;;;;;;;4.97;2.80;;;;;;;;;;5025894;28;20510;-69
2022/06/09 14:29:14;;;;;;;6.13;2.95;;;;;;;;;;5010419;28;20495;-68
2022/06/09 14:31:41;;;;;;;5.80;3.03;;;;;;;;;;5010553;28;20152;-69
2022/06/09 14:34:07;;;;;;;4.88;3.33;;;;;;;;;;5025930;28;20041;-70
2022/06/09 14:36:33;;;;;;;4.93;3.17;;;;;;;;;;5010316;28;20429;-70
2022/06/09 14:38:59;;;;;;;4.78;3.00;;;;;;;;;;5010719;28;20602;-70
2022/06/09 14:41:25;;;;;;;3.92;3.50;;;;;;;;;;5025355;28;20069;-69
2022/06/09 14:43:51;;;;;;;9.85;3.35;;;;;;;;;;5009323;28;20048;-69
2022/06/09 14:46:20;;;;;;;7.43;3.25;;;;;;;;;;5010114;28;20042;-70
2022/06/09 14:48:45;;;;;;;8.48;3.28;;;;;;;;;;5010753;28;20616;-69
2022/06/09 14:51:13;;;;;;;5.68;3.08;;;;;;;;;;5010124;28;20057;-72
2022/06/09 14:53:39;;;;;;;10.02;3.17;;;;;;;;;;5013977;28;20055;-69
2022/06/09 14:56:05;;;;;;;3.63;2.90;;;;;;;;;;5030266;28;20049;-69
2022/06/09 14:58:31;;;;;;;6.68;3.60;;;;;;;;;;5029622;28;20647;-71
2022/06/09 15:00:57;;;;;;;4.10;3.42;;;;;;;;;;5011984;28;20045;-69
2022/06/09 15:03:23;;;;;;;3.72;3.42;;;;;;;;;;5028256;28;20168;-70
2022/06/09 15:05:49;;;;;;;5.45;3.60;;;;;;;;;;5030052;28;20048;-70
2022/06/09 15:08:15;;;;;;;9.45;3.30;;;;;;;;;;5028334;28;20429;-70
2022/06/09 15:10:44;;;;;;;4.20;3.67;;;;;;;;;;5029948;28;20056;-70
2022/06/09 15:13:09;;;;;;;8.57;3.50;;;;;;;;;;5029730;28;20228;-70
2022/06/09 15:15:36;;;;;;;6.40;3.75;;;;;;;;;;5011876;28;20124;-70
2022/06/09 15:18:06;;;;;;;8.63;3.63;;;;;;;;;;5029931;28;20044;-70
2022/06/09 15:20:33;;;;;;;9.45;3.70;;;;;;;;;;5011839;28;20056;-70
2022/06/09 15:22:59;;;;;;;8.35;3.63;;;;;;;;;;5029676;28;20072;-70
2022/06/09 15:25:25;;;;;;;8.95;3.80;;;;;;;;;;5028844;28;20056;-69
2022/06/09 15:27:51;;;;;;;7.45;3.60;;;;;;;;;;5012043;28;20095;-70
2022/06/09 15:30:22;;;;;;;4.50;3.47;;;;;;;;;;5029229;28;20545;-70
2022/06/09 15:32:47;;;;;;;11.13;4.00;;;;;;;;;;5029562;28;20079;-70
2022/06/09 15:35:13;;;;;;;11.15;4.40;;;;;;;;;;5029687;28;20065;-70
2022/06/09 15:37:40;;;;;;;5.20;3.88;;;;;;;;;;5029642;28;20065;-71
2022/06/09 15:40:07;;;;;;;6.53;3.55;;;;;;;;;;5029480;28;20049;-71
2022/06/09 15:42:33;;;;;;;9.48;3.70;;;;;;;;;;5024128;28;20038;-70
2022/06/09 15:44:59;;;;;;;13.05;4.18;;;;;;;;;;5023699;28;20041;-70
2022/06/09 15:47:25;;;;;;;7.43;3.90;;;;;;;;;;5019964;28;20107;-69
2022/06/09 15:49:51;;;;;;;11.23;4.03;;;;;;;;;;5009433;28;20422;-70
2022/06/09 15:52:17;;;;;;;11.43;4.57;;;;;;;;;;5009278;28;20054;-70
2022/06/09 15:54:43;;;;;;;8.27;4.70;;;;;;;;;;5009648;28;20050;-69
2022/06/09 15:57:09;;;;;;;13.45;4.47;;;;;;;;;;5009978;28;20140;-70
2022/06/09 15:59:35;;;;;;;10.75;4.85;;;;;;;;;;5009371;28;20046;-70
2022/06/09 16:02:10;;;;;;;7.45;4.70;;;;;;;;;;5020717;28;20042;-70
2022/06/09 16:04:37;;;;;;;11.57;5.20;;;;;;;;;;5026269;28;20128;-70
2022/06/09 16:07:03;;;;;;;13.25;5.22;;;;;;;;;;5021324;28;20046;-70
2022/06/09 16:09:29;;;;;;;22.13;5.18;;;;;;;;;;5010446;28;20528;-71
2022/06/09 16:11:55;;;;;;;16.40;5.60;;;;;;;;;;5011035;28;20052;-70
2022/06/09 16:14:21;;;;;;;12.07;5.35;;;;;;;;;;5026364;28;20045;-71
2022/06/09 16:16:47;;;;;;;17.27;5.22;;;;;;;;;;5028486;28;20037;-70
2022/06/09 16:19:13;;;;;;;7.57;5.22;;;;;;;;;;5009760;28;20208;-71
2022/06/09 16:21:39;;;;;;;14.65;4.43;;;;;;;;;;5027873;28;20046;-71
2022/06/09 16:24:05;;;;;;;13.70;4.90;;;;;;;;;;5028555;28;20045;-71
2022/06/09 16:26:31;;;;;;;8.80;4.90;;;;;;;;;;5010777;28;20052;-70
2022/06/09 16:28:57;;;;;;;10.05;5.38;;;;;;;;;;5027982;28;20049;-71
2022/06/09 16:31:23;;;;;;;13.45;4.95;;;;;;;;;;5026187;28;20084;-71
2022/06/09 16:33:51;;;;;;;11.63;5.47;;;;;;;;;;5026753;28;20045;-71
2022/06/09 16:36:17;;;;;;;11.32;5.38;;;;;;;;;;5026875;28;20041;-70
2022/06/09 16:38:43;;;;;;;12.05;5.10;;;;;;;;;;5012595;28;20553;-71
2022/06/09 16:41:09;;;;;;;11.05;5.10;;;;;;;;;;5028855;28;20042;-71
2022/06/09 16:43:35;;;;;;;9.43;4.55;;;;;;;;;;5030342;28;20041;-69
2022/06/09 16:46:01;;;;;;;11.70;4.85;;;;;;;;;;5014866;28;20045;-71
2022/06/09 16:48:27;;;;;;;17.25;4.82;;;;;;;;;;5030794;28;20121;-71
2022/06/09 16:50:54;;;;;;;8.05;4.93;;;;;;;;;;5032167;28;20041;-70
2022/06/09 16:53:20;;;;;;;14.82;4.95;;;;;;;;;;5031925;28;20532;-71
2022/06/09 16:55:46;;;;;;;9.90;5.78;;;;;;;;;;5032373;28;20129;-70
2022/06/09 16:58:12;;;;;;;11.80;5.05;;;;;;;;;;5032213;28;20128;-70
2022/06/09 17:00:39;;;;;;;11.52;5.43;;;;;;;;;;5032088;28;20119;-71
2022/06/09 17:03:10;;;;;;;7.80;4.97;;;;;;;;;;5031868;28;20464;-71
2022/06/09 17:05:39;;;;;;;23.75;5.63;;;;;;;;;;5031430;28;20057;-70
2022/06/09 17:08:05;;;;;;;18.20;5.55;;;;;;;;;;5031738;28;20571;-70
2022/06/09 17:10:32;;;;;;;20.40;5.43;;;;;;;;;;5031383;28;20033;-70
2022/06/09 17:12:58;;;;;;;14.13;4.60;;;;;;;;;;5013864;28;20140;-70
2022/06/09 17:15:25;;;;;;;9.57;5.32;;;;;;;;;;5031583;28;20033;-71
2022/06/09 17:17:50;;;;;;;26.70;8.18;;;;;;;;;;5031576;28;20049;-70
2022/06/09 17:20:16;;;;;;;20.45;5.85;;;;;;;;;;5031697;28;20039;-70
2022/06/09 17:22:42;;;;;;;15.18;5.40;;;;;;;;;;5031119;28;20056;-70
2022/06/09 17:25:08;;;;;;;20.80;5.43;;;;;;;;;;5030177;28;20037;-71
2022/06/09 17:27:34;;;;;;;22.17;5.65;;;;;;;;;;5031146;28;20260;-71
2022/06/09 17:30:00;;;;;;;29.20;5.85;;;;;;;;;;5031587;28;20440;-69
2022/06/09 17:32:26;;;;;;;21.80;6.28;;;;;;;;;;5013280;28;20057;-71
2022/06/09 17:34:54;;;;;;;21.70;6.25;;;;;;;;;;5031373;28;20647;-70
2022/06/09 17:37:20;;;;;;;30.05;9.40;;;;;;;;;;5031315;28;20176;-70
2022/06/09 17:39:46;;;;;;;32.88;8.60;;;;;;;;;;5031376;28;20029;-71
2022/06/09 17:42:12;;;;;;;25.35;8.63;;;;;;;;;;5031118;28;20049;-71
2022/06/09 17:44:38;;;;;;;40.55;9.32;;;;;;;;;;4996692;28;20124;-71
2022/06/09 17:47:05;;;;;;;37.08;9.48;;;;;;;;;;5031261;28;20509;-71
2022/06/09 17:49:31;;;;;;;39.15;8.75;;;;;;;;;;5030227;28;20420;-70
2022/06/09 17:51:57;;;;;;;24.00;7.57;;;;;;;;;;5031077;28;20542;-70
2022/06/09 17:54:23;;;;;;;26.63;7.70;;;;;;;;;;4996847;28;20117;-71
2022/06/09 17:56:49;;;;;;;20.33;7.63;;;;;;;;;;5031019;28;20505;-71
2022/06/09 17:59:15;;;;;;;19.77;7.18;;;;;;;;;;5013328;28;20521;-71
2022/06/09 18:01:41;;;;;;;20.02;7.35;;;;;;;;;;5013573;28;20069;-71
2022/06/09 18:04:08;;;;;;;18.90;8.77;;;;;;;;;;5031095;28;20080;-71
2022/06/09 18:06:34;;;;;;;22.48;7.75;;;;;;;;;;5030643;28;20029;-71
2022/06/09 18:09:01;;;;;;;15.82;7.40;;;;;;;;;;5013830;28;20115;-71
2022/06/09 18:11:28;;;;;;;15.13;7.53;;;;;;;;;;5030266;28;20457;-70
2022/06/09 18:13:54;;;;;;;19.13;7.95;;;;;;;;;;4997221;28;20403;-71
2022/06/09 18:16:20;;;;;;;15.48;7.10;;;;;;;;;;5030914;28;20115;-71
2022/06/09 18:18:47;;;;;;;18.98;7.32;;;;;;;;;;4996762;28;20485;-71
2022/06/09 18:21:13;;;;;;;8.35;6.85;;;;;;;;;;5013583;28;20453;-70
2022/06/09 18:23:39;;;;;;;21.63;8.05;;;;;;;;;;4996324;28;20080;-70
2022/06/09 18:26:05;;;;;;;13.65;7.40;;;;;;;;;;5030740;28;20084;-70
2022/06/09 18:28:31;;;;;;;20.23;8.32;;;;;;;;;;5030124;28;20613;-70
2022/06/09 18:30:58;;;;;;;17.90;8.52;;;;;;;;;;5030652;28;20065;-70
2022/06/09 18:33:24;;;;;;;17.88;7.90;;;;;;;;;;5030469;28;20045;-70
2022/06/09 18:35:50;;;;;;;15.52;7.72;;;;;;;;;;5013054;28;20512;-70
2022/06/09 18:38:18;;;;;;;14.57;8.88;;;;;;;;;;5030480;28;20187;-70
2022/06/09 18:40:47;;;;;;;17.05;8.88;;;;;;;;;;5030346;28;20045;-70
2022/06/09 18:43:14;;;;;;;19.13;9.18;;;;;;;;;;5030385;28;20618;-70
2022/06/09 18:45:40;;;;;;;25.60;11.52;;;;;;;;;;5030113;28;20086;-70
2022/06/09 18:48:07;;;;;;;25.40;10.55;;;;;;;;;;5030280;28;20128;-70
2022/06/09 18:50:38;;;;;;;30.52;15.00;;;;;;;;;;5012489;28;20041;-69
2022/06/09 18:53:05;;;;;;;24.15;14.90;;;;;;;;;;5030026;28;20057;-69
2022/06/09 18:55:32;;;;;;;29.17;14.18;;;;;;;;;;5012250;28;20064;-70
2022/06/09 18:57:58;;;;;;;19.42;10.88;;;;;;;;;;5030152;28;20064;-70
2022/06/09 19:00:24;;;;;;;12.43;9.23;;;;;;;;;;5030354;28;20052;-70
2022/06/09 19:02:50;;;;;;;19.02;10.20;;;;;;;;;;5029951;28;20475;-71
2022/06/09 19:05:17;;;;;;;25.95;13.35;;;;;;;;;;5012667;28;20055;-70
2022/06/09 19:07:43;;;;;;;28.27;16.85;;;;;;;;;;5012099;28;20524;-70
2022/06/09 19:10:12;;;;;;;30.50;14.73;;;;;;;;;;5030026;28;20103;-70
2022/06/09 19:12:38;;;;;;;22.88;15.35;;;;;;;;;;5029484;28;20450;-70
2022/06/09 19:15:04;;;;;;;25.67;13.68;;;;;;;;;;5029885;28;20125;-69
2022/06/09 19:17:31;;;;;;;30.33;9.95;;;;;;;;;;5012583;28;20068;-70
2022/06/09 19:19:56;;;;;;;15.95;8.57;;;;;;;;;;5029823;28;20133;-70
2022/06/09 19:22:22;;;;;;;17.42;6.50;;;;;;;;;;5029736;28;20574;-70
2022/06/09 19:24:49;;;;;;;9.52;6.38;;;;;;;;;;5011902;28;20067;-71
2022/06/09 19:27:14;;;;;;;13.38;6.40;;;;;;;;;;5029677;28;20049;-70
2022/06/09 19:29:41;;;;;;;9.88;6.50;;;;;;;;;;5011995;28;20038;-70
2022/06/09 19:32:07;;;;;;;11.73;7.03;;;;;;;;;;5029384;28;20071;-72
2022/06/09 19:34:33;;;;;;;14.13;6.82;;;;;;;;;;5029433;28;20040;-70
2022/06/09 19:37:01;;;;;;;12.63;7.30;;;;;;;;;;5029464;28;20513;-70
2022/06/09 19:39:27;;;;;;;8.60;6.93;;;;;;;;;;5029327;28;20113;-71
2022/06/09 19:41:53;;;;;;;11.80;7.82;;;;;;;;;;4994778;28;20684;-70
2022/06/09 19:44:19;;;;;;;17.23;7.82;;;;;;;;;;5011847;28;20030;-70
2022/06/09 19:46:45;;;;;;;10.00;7.40;;;;;;;;;;5029278;28;20049;-70
2022/06/09 19:49:11;;;;;;;19.60;7.95;;;;;;;;;;5029595;28;20036;-70
2022/06/09 19:51:38;;;;;;;11.00;6.93;;;;;;;;;;5011347;28;20052;-69
2022/06/09 19:54:05;;;;;;;10.50;6.90;;;;;;;;;;5011140;28;20103;-70
2022/06/09 19:56:32;;;;;;;13.82;7.22;;;;;;;;;;5028837;28;20101;-71
2022/06/09 19:58:59;;;;;;;15.75;6.93;;;;;;;;;;5011356;28;20469;-70
2022/06/09 20:01:26;;;;;;;18.33;7.03;;;;;;;;;;5012034;28;20045;-70
2022/06/09 20:03:52;;;;;;;9.00;7.18;;;;;;;;;;5010992;28;20030;-70
2022/06/09 20:06:22;;;;;;;12.80;7.20;;;;;;;;;;5029372;28;20061;-70
2022/06/09 20:08:48;;;;;;;13.60;6.93;;;;;;;;;;5029083;28;20041;-72
2022/06/09 20:11:14;;;;;;;16.98;7.28;;;;;;;;;;5011895;28;20049;-71
2022/06/09 20:13:40;;;;;;;15.70;7.72;;;;;;;;;;5032884;28;20115;-71
2022/06/09 20:16:06;;;;;;;20.38;8.50;;;;;;;;;;5033189;28;20045;-70
2022/06/09 20:18:32;;;;;;;13.55;7.18;;;;;;;;;;5015219;28;20308;-71
2022/06/09 20:21:01;;;;;;;13.20;8.07;;;;;;;;;;4999403;28;20185;-71
2022/06/09 20:23:28;;;;;;;11.63;7.43;;;;;;;;;;5033031;28;20045;-71
2022/06/09 20:25:55;;;;;;;13.77;6.78;;;;;;;;;;5032962;28;20559;-70
2022/06/09 20:28:22;;;;;;;10.48;6.90;;;;;;;;;;5033048;28;20567;-70
2022/06/09 20:30:48;;;;;;;12.38;7.50;;;;;;;;;;5015001;28;20037;-71
2022/06/09 20:33:14;;;;;;;13.27;7.80;;;;;;;;;;5015274;28;20513;-70
2022/06/09 20:35:40;;;;;;;12.45;9.30;;;;;;;;;;5015098;28;20049;-70
2022/06/09 20:38:06;;;;;;;14.88;8.43;;;;;;;;;;5032750;28;20045;-70
2022/06/09 20:40:36;;;;;;;28.17;11.60;;;;;;;;;;5032691;28;20076;-71
2022/06/09 20:43:02;;;;;;;21.02;8.43;;;;;;;;;;5015155;28;20584;-69
2022/06/09 20:45:28;;;;;;;21.63;10.88;;;;;;;;;;5014851;28;20045;-70
2022/06/09 20:47:55;;;;;;;21.77;9.68;;;;;;;;;;5014730;28;20086;-69
2022/06/09 20:50:23;;;;;;;29.17;10.13;;;;;;;;;;5032586;28;20049;-69
2022/06/09 20:52:51;;;;;;;25.55;10.23;;;;;;;;;;5014679;28;20140;-72
2022/06/09 20:55:17;;;;;;;21.63;9.63;;;;;;;;;;5014911;28;20060;-70